TimeMDT,TemperatureF,Dew PointF,Humidity,Sea Level PressureIn,VisibilityMPH,Wind Direction,Wind SpeedMPH,Gust SpeedMPH,PrecipitationIn,Events,Conditions,WindDirDegrees,DateUTC
12:14 AM,69.8,42.8,38,30.19,10.0,North,15.0,27.6,0.00,Rain,Light Rain,350,2013-07-05 06:14:00
12:53 AM,69.1,43.0,39,29.74,10.0,NW,11.5,-,0.00,,Scattered Clouds,310,2013-07-05 06:53:00
1:53 AM,62.1,46.0,56,29.82,10.0,WNW,6.9,-,N/A,,Clear,300,2013-07-05 07:53:00
2:53 AM,64.0,46.0,52,29.84,10.0,NNW,5.8,-,N/A,,Mostly Cloudy,330,2013-07-05 08:53:00
3:53 AM,61.0,50.0,67,29.81,10.0,NNE,10.4,-,N/A,,Overcast,20,2013-07-05 09:53:00
4:53 AM,59.0,50.0,72,29.81,10.0,NNE,10.4,-,N/A,,Clear,30,2013-07-05 10:53:00
5:53 AM,55.9,50.0,80,29.84,10.0,WNW,4.6,-,N/A,,Clear,300,2013-07-05 11:53:00
6:53 AM,55.9,50.0,80,29.84,10.0,NNW,6.9,-,N/A,,Clear,330,2013-07-05 12:53:00
7:53 AM,57.0,51.1,81,29.86,10.0,NE,3.5,-,N/A,,Clear,40,2013-07-05 13:53:00
8:53 AM,59.0,51.1,75,29.87,10.0,Calm,Calm,-,N/A,,Clear,0,2013-07-05 14:53:00
9:53 AM,72.0,48.9,44,29.83,10.0,Calm,Calm,-,N/A,,Clear,0,2013-07-05 15:53:00
10:53 AM,77.0,48.0,36,29.77,10.0,SSE,11.5,-,N/A,,Clear,150,2013-07-05 16:53:00
11:53 AM,80.1,45.0,29,29.75,10.0,SSE,11.5,-,N/A,,Partly Cloudy,150,2013-07-05 17:53:00
12:53 PM,77.0,50.0,39,29.75,10.0,NE,3.5,-,0.00,Rain,Light Rain,50,2013-07-05 18:53:00
1:53 PM,66.0,55.9,70,29.82,5.0,North,3.5,-,0.09,Rain,Light Rain,360,2013-07-05 19:53:00
2:25 PM,64.4,48.2,56,30.19,1.8,Variable,5.8,23.0,0.22,Rain,Heavy Rain,0,2013-07-05 20:25:00
2:34 PM,64.4,50.0,59,30.17,3.0,NNE,16.1,19.6,0.23,Rain,Light Rain,30,2013-07-05 20:34:00
2:53 PM,71.1,55.0,57,29.78,10.0,NNE,6.9,-,0.23,,Partly Cloudy,20,2013-07-05 20:53:00
3:53 PM,75.9,48.0,37,29.74,10.0,WSW,13.8,-,N/A,,Partly Cloudy,240,2013-07-05 21:53:00
4:08 PM,73.4,51.8,47,30.14,10.0,SW,6.9,-,N/A,,Scattered Clouds,220,2013-07-05 22:08:00
4:53 PM,73.0,52.0,48,29.75,10.0,Calm,Calm,-,0.01,,Overcast,0,2013-07-05 22:53:00
5:53 PM,70.0,48.0,46,29.78,10.0,East,9.2,-,N/A,,Mostly Cloudy,90,2013-07-05 23:53:00
6:53 PM,66.9,48.9,52,29.84,10.0,NE,10.4,-,N/A,,Overcast,40,2013-07-06 00:53:00
7:24 PM,64.4,51.8,64,30.18,10.0,ESE,6.9,-,0.00,,Mostly Cloudy,110,2013-07-06 01:24:00
7:53 PM,64.9,46.9,52,29.84,10.0,Variable,4.6,-,0.00,,Mostly Cloudy,0,2013-07-06 01:53:00
8:53 PM,63.0,51.1,65,29.87,10.0,SW,8.1,-,0.00,,Scattered Clouds,220,2013-07-06 02:53:00
9:53 PM,62.1,51.1,67,29.81,10.0,SSE,8.1,-,0.01,,Partly Cloudy,150,2013-07-06 03:53:00
10:53 PM,57.9,52.0,81,29.81,10.0,Calm,Calm,-,N/A,,Clear,0,2013-07-06 04:53:00
11:53 PM,55.0,51.1,86,29.81,10.0,West,3.5,-,N/A,,Clear,280,2013-07-06 05:53:00